createdAt,value
2023-03-27T00:00:13.401Z,7.03
2023-03-27T00:02:43.404Z,6.53
2023-03-27T00:05:11.736Z,7.10
2023-03-27T00:07:41.441Z,6.47
2023-03-27T00:10:10.801Z,7.77
2023-03-27T00:12:39.390Z,9.57
2023-03-27T00:15:08.670Z,6.00
2023-03-27T00:17:37.551Z,6.00
2023-03-27T00:20:07.981Z,8.40
2023-03-27T00:22:36.286Z,5.43
2023-03-27T00:25:05.248Z,6.97
2023-03-27T00:27:33.539Z,5.83
2023-03-27T00:30:01.831Z,7.07
2023-03-27T00:32:30.128Z,5.83
2023-03-27T00:34:58.398Z,6.07
2023-03-27T00:37:28.094Z,5.90
2023-03-27T00:39:56.656Z,4.50
2023-03-27T00:42:25.884Z,7.13
2023-03-27T00:44:54.849Z,9.00
2023-03-27T00:47:31.027Z,6.27
2023-03-27T00:50:00.645Z,7.20
2023-03-27T00:52:31.554Z,8.47
2023-03-27T00:55:04.123Z,4.90
2023-03-27T00:57:32.885Z,5.90
2023-03-27T01:00:08.944Z,7.13
2023-03-27T01:02:37.914Z,8.40
2023-03-27T01:05:07.556Z,8.67
2023-03-27T01:07:39.484Z,8.80
2023-03-27T01:10:10.150Z,6.97
2023-03-27T01:12:44.753Z,9.23
2023-03-27T01:15:26.819Z,10.57
2023-03-27T01:18:06.384Z,5.70
2023-03-27T01:21:08.195Z,8.13
2023-03-27T01:24:02.057Z,8.70
2023-03-27T01:27:06.474Z,7.37
2023-03-27T01:29:56.890Z,6.93
2023-03-27T01:32:52.535Z,8.73
2023-03-27T01:35:48.164Z,5.80
2023-03-27T01:39:01.781Z,10.77
2023-03-27T01:41:36.349Z,9.47
2023-03-27T01:44:14.367Z,10.20
2023-03-27T01:46:51.265Z,13.17
2023-03-27T01:49:24.553Z,15.03
2023-03-27T01:51:58.580Z,10.00
2023-03-27T01:54:30.916Z,12.93
2023-03-27T01:57:08.348Z,12.97
2023-03-27T01:59:40.977Z,18.37
2023-03-27T02:02:14.460Z,16.17
2023-03-27T02:04:46.992Z,15.50
2023-03-27T02:07:23.105Z,13.50
2023-03-27T02:09:54.486Z,13.70
2023-03-27T02:12:29.201Z,12.27
2023-03-27T02:15:23.435Z,19.80
2023-03-27T02:17:52.568Z,11.93
2023-03-27T02:20:21.105Z,9.60
2023-03-27T02:22:49.967Z,11.43
2023-03-27T02:25:27.385Z,10.20
2023-03-27T02:28:09.900Z,14.33
2023-03-27T02:30:44.245Z,12.17
2023-03-27T02:33:19.729Z,8.20
2023-03-27T02:35:57.348Z,13.23
2023-03-27T02:38:31.953Z,12.33
2023-03-27T02:41:10.331Z,11.77
2023-03-27T02:43:45.310Z,14.60
2023-03-27T02:46:17.899Z,10.30
2023-03-27T02:48:48.869Z,14.87
2023-03-27T02:51:22.247Z,11.73
2023-03-27T02:53:55.738Z,15.13
2023-03-27T02:56:29.393Z,12.97
2023-03-27T02:59:03.961Z,11.87
2023-03-27T03:01:33.694Z,11.50
2023-03-27T03:04:05.039Z,14.20
2023-03-27T03:06:33.354Z,13.23
2023-03-27T03:09:04.732Z,12.87
2023-03-27T03:11:34.792Z,12.93
2023-03-27T03:14:04.798Z,12.17
2023-03-27T03:16:33.517Z,11.67
2023-03-27T03:19:01.993Z,11.90
2023-03-27T03:21:30.259Z,12.13
2023-03-27T03:23:59.362Z,13.27
2023-03-27T03:26:28.217Z,14.60
2023-03-27T03:29:00.149Z,17.80
2023-03-27T03:31:44.643Z,11.63
2023-03-27T03:34:14.421Z,14.47
2023-03-27T03:36:43.141Z,14.10
2023-03-27T03:39:12.673Z,15.20
2023-03-27T03:41:50.369Z,13.67
2023-03-27T03:44:19.004Z,16.50
2023-03-27T03:46:48.713Z,14.53
2023-03-27T03:49:16.960Z,12.67
2023-03-27T03:51:46.103Z,11.63
2023-03-27T03:54:14.440Z,11.60
2023-03-27T03:56:43.331Z,13.03
2023-03-27T03:59:12.144Z,11.97
2023-03-27T04:01:41.041Z,13.80
2023-03-27T04:04:11.455Z,10.17
2023-03-27T04:06:40.564Z,11.17
2023-03-27T04:09:08.868Z,12.07
2023-03-27T04:11:37.569Z,16.67
2023-03-27T04:14:06.315Z,14.53
2023-03-27T04:16:34.884Z,17.13
2023-03-27T04:19:03.235Z,14.87
2023-03-27T04:21:33.240Z,11.23
2023-03-27T04:24:02.963Z,13.47
2023-03-27T04:26:31.460Z,12.87
2023-03-27T04:29:00.000Z,12.37
2023-03-27T04:31:30.347Z,9.80
2023-03-27T04:34:00.033Z,9.87
2023-03-27T04:36:29.545Z,9.23
2023-03-27T04:39:02.381Z,9.13
2023-03-27T04:41:30.724Z,9.53
2023-03-27T04:43:59.060Z,8.27
2023-03-27T04:46:27.501Z,11.50
2023-03-27T04:48:56.516Z,13.30
2023-03-27T04:51:26.787Z,10.67
2023-03-27T04:53:56.484Z,7.13
2023-03-27T04:56:26.230Z,10.67
2023-03-27T04:58:54.494Z,11.53
2023-03-27T05:01:22.980Z,10.50
2023-03-27T05:03:51.428Z,7.90
2023-03-27T05:06:19.822Z,7.13
2023-03-27T05:08:48.050Z,10.27
2023-03-27T05:11:16.805Z,8.20
2023-03-27T05:13:46.685Z,8.23
2023-03-27T05:16:17.378Z,7.70
2023-03-27T05:18:46.252Z,7.70
2023-03-27T05:21:14.900Z,8.07
2023-03-27T05:23:43.398Z,9.03
2023-03-27T05:26:11.701Z,8.10
2023-03-27T05:28:40.460Z,10.17
2023-03-27T05:31:10.793Z,10.63
2023-03-27T05:33:40.006Z,9.10
2023-03-27T05:36:10.014Z,9.03
2023-03-27T05:38:39.544Z,10.37
2023-03-27T05:41:08.575Z,7.73
2023-03-27T05:43:36.971Z,7.07
2023-03-27T05:46:05.690Z,8.20
2023-03-27T05:48:35.972Z,8.07
2023-03-27T05:51:04.754Z,7.67
2023-03-27T05:53:33.127Z,8.43
2023-03-27T05:56:02.954Z,7.83
2023-03-27T05:58:32.002Z,7.57
2023-03-27T06:01:00.694Z,9.03
2023-03-27T06:03:30.922Z,9.63
2023-03-27T06:06:01.101Z,7.83
2023-03-27T06:08:29.948Z,7.13
2023-03-27T06:10:58.635Z,7.77
2023-03-27T06:13:27.223Z,7.77
2023-03-27T06:15:56.519Z,10.10
2023-03-27T06:18:25.150Z,10.80
2023-03-27T06:20:53.474Z,8.03
2023-03-27T06:23:23.317Z,9.10
2023-03-27T06:25:53.191Z,8.80
2023-03-27T06:28:21.904Z,9.50
2023-03-27T06:30:51.418Z,9.97
2023-03-27T06:33:19.836Z,7.63
2023-03-27T06:35:53.446Z,9.85
2023-03-27T06:38:23.670Z,8.57
2023-03-27T06:40:52.014Z,8.00
2023-03-27T06:43:22.522Z,8.37
2023-03-27T06:45:52.022Z,7.63
2023-03-27T06:48:22.397Z,6.13
2023-03-27T06:50:54.081Z,7.40
2023-03-27T06:53:27.955Z,6.37
2023-03-27T06:55:58.256Z,8.33
2023-03-27T06:58:27.638Z,10.00
2023-03-27T07:00:56.170Z,8.77
2023-03-27T07:03:25.820Z,8.60
2023-03-27T07:05:54.264Z,6.93
2023-03-27T07:08:25.554Z,6.80
2023-03-27T07:13:26.262Z,8.33
2023-03-27T07:15:54.988Z,9.10
2023-03-27T07:18:24.072Z,7.27
2023-03-27T07:20:52.669Z,7.43
2023-03-27T07:23:21.027Z,11.70
2023-03-27T07:25:52.228Z,6.83
2023-03-27T07:28:21.046Z,4.93
2023-03-27T07:30:49.376Z,5.73
2023-03-27T07:33:17.711Z,5.03
2023-03-27T07:35:47.021Z,5.13
2023-03-27T07:38:16.156Z,4.23
2023-03-27T07:40:46.181Z,6.73
2023-03-27T07:43:16.579Z,8.73
2023-03-27T07:45:44.915Z,6.83
2023-03-27T07:48:16.234Z,13.70
2023-03-27T07:50:45.367Z,6.07
2023-03-27T07:53:33.554Z,5.37
2023-03-27T07:56:02.837Z,7.83
2023-03-27T07:58:32.725Z,7.50
2023-03-27T08:01:02.439Z,4.30
2023-03-27T08:03:32.091Z,6.37
2023-03-27T08:06:01.569Z,7.40
2023-03-27T08:08:30.294Z,4.37
2023-03-27T08:11:00.215Z,4.80
2023-03-27T08:13:28.690Z,8.10
2023-03-27T08:16:06.590Z,5.53
2023-03-27T08:18:36.516Z,5.07
2023-03-27T08:21:06.092Z,5.18
2023-03-27T08:23:34.395Z,5.90
2023-03-27T08:26:03.816Z,6.07
2023-03-27T08:32:46.621Z,9.17
2023-03-27T08:35:16.914Z,7.60
2023-03-27T08:37:45.409Z,6.10
2023-03-27T08:40:20.867Z,5.07
2023-03-27T08:42:54.082Z,5.23
2023-03-27T08:45:27.173Z,3.87
2023-03-27T08:47:59.552Z,7.30
2023-03-27T08:50:35.101Z,8.77
2023-03-27T08:53:07.276Z,6.37
2023-03-27T08:55:41.469Z,6.47
2023-03-27T08:58:19.671Z,7.53
2023-03-27T09:00:53.520Z,6.47
2023-03-27T09:03:27.552Z,6.87
2023-03-27T09:06:00.440Z,7.13
2023-03-27T09:08:44.851Z,6.10
2023-03-27T09:11:25.219Z,7.97
2023-03-27T09:13:54.698Z,5.30
2023-03-27T09:16:29.211Z,6.37
2023-03-27T09:19:09.515Z,6.30
2023-03-27T09:21:44.658Z,7.13
2023-03-27T09:24:19.533Z,5.40
2023-03-27T09:26:57.867Z,5.20
2023-03-27T09:29:38.108Z,7.40
2023-03-27T09:32:13.789Z,5.93
2023-03-27T09:34:43.175Z,4.50
2023-03-27T09:37:17.386Z,6.07
2023-03-27T09:39:51.594Z,5.30
2023-03-27T09:42:25.593Z,7.70
2023-03-27T09:44:57.630Z,4.90
2023-03-27T09:47:33.018Z,6.57
2023-03-27T09:50:19.894Z,9.63
2023-03-27T09:52:49.669Z,5.00
2023-03-27T09:55:26.850Z,11.27
2023-03-27T09:58:01.336Z,5.00
2023-03-27T10:00:33.677Z,6.37
2023-03-27T10:03:05.849Z,8.30
2023-03-27T10:05:34.885Z,10.57
2023-03-27T10:08:31.299Z,7.50
2023-03-27T10:11:00.396Z,6.63
2023-03-27T10:13:30.820Z,8.07
2023-03-27T10:16:05.439Z,7.37
2023-03-27T10:18:36.464Z,5.33
2023-03-27T10:21:10.993Z,6.57
2023-03-27T10:23:44.791Z,6.03
2023-03-27T10:26:17.366Z,11.30
2023-03-27T10:28:49.117Z,6.30
2023-03-27T10:31:29.994Z,4.18
2023-03-27T10:33:59.688Z,5.73
2023-03-27T10:36:28.372Z,6.60
2023-03-27T10:39:02.204Z,4.72
2023-03-27T10:41:32.648Z,4.72
2023-03-27T10:44:01.982Z,7.38
2023-03-27T10:46:32.043Z,7.33
2023-03-27T10:49:08.028Z,7.32
2023-03-27T10:51:47.999Z,5.05
2023-03-27T10:54:31.866Z,9.75
2023-03-27T10:57:13.966Z,6.55
2023-03-27T10:59:47.195Z,5.53
2023-03-27T11:02:21.619Z,5.85
2023-03-27T11:04:54.475Z,4.72
2023-03-27T11:07:26.656Z,5.97
2023-03-27T11:10:02.273Z,5.65
2023-03-27T11:12:33.576Z,5.55
2023-03-27T11:15:07.533Z,5.63
2023-03-27T11:17:45.179Z,4.57
2023-03-27T11:20:23.959Z,4.60
2023-03-27T11:23:01.414Z,7.60
2023-03-27T11:25:39.101Z,3.78
2023-03-27T11:28:20.913Z,6.45
2023-03-27T11:30:56.016Z,5.50
2023-03-27T11:33:33.613Z,4.93
2023-03-27T11:36:12.652Z,5.70
2023-03-27T11:38:46.601Z,4.97
2023-03-27T11:41:16.954Z,9.30
2023-03-27T11:43:45.447Z,5.85
2023-03-27T11:46:29.811Z,6.10
2023-03-27T11:49:11.772Z,5.20
2023-03-27T11:51:57.546Z,6.88
2023-03-27T11:54:39.586Z,6.22
2023-03-27T11:57:18.074Z,5.30
2023-03-27T12:00:12.241Z,7.72
2023-03-27T12:03:04.042Z,5.05
2023-03-27T12:05:44.211Z,5.78
2023-03-27T12:08:22.808Z,7.65
2023-03-27T12:10:53.276Z,10.77
2023-03-27T12:13:42.714Z,6.07
2023-03-27T12:16:27.403Z,4.72
2023-03-27T12:19:17.233Z,6.30
2023-03-27T12:22:14.273Z,6.85
2023-03-27T12:25:06.209Z,5.28
2023-03-27T12:27:47.484Z,6.07
2023-03-27T12:30:27.612Z,8.77
2023-03-27T12:33:34.576Z,5.43
2023-03-27T12:38:50.250Z,4.57
2023-03-27T12:41:24.871Z,7.38
2023-03-27T12:43:57.969Z,4.18
2023-03-27T12:46:37.414Z,7.05
2023-03-27T12:49:48.009Z,7.32
2023-03-27T12:52:19.348Z,5.20
2023-03-27T12:55:07.240Z,5.90
2023-03-27T12:57:44.459Z,6.63
2023-03-27T13:00:22.100Z,4.90
2023-03-27T13:03:27.844Z,8.30
2023-03-27T13:06:08.822Z,5.10
2023-03-27T13:08:56.115Z,3.95
2023-03-27T13:11:39.046Z,7.80
2023-03-27T13:14:43.042Z,8.30
2023-03-27T13:17:24.947Z,12.02
2023-03-27T13:20:06.504Z,8.73
2023-03-27T13:22:54.614Z,12.43
2023-03-27T13:25:32.647Z,10.55
2023-03-27T13:28:34.790Z,7.60
2023-03-27T13:31:04.492Z,12.10
2023-03-27T13:33:46.180Z,9.90
2023-03-27T13:36:20.004Z,10.55
2023-03-27T13:39:21.157Z,6.35
2023-03-27T13:42:10.928Z,5.70
2023-03-27T13:44:52.469Z,3.63
2023-03-27T13:47:54.091Z,9.70
2023-03-27T13:50:44.040Z,4.23
2023-03-27T13:53:44.921Z,3.73
2023-03-27T13:59:27.872Z,5.37
2023-03-27T14:02:11.758Z,6.10
2023-03-27T14:04:55.403Z,5.50
2023-03-27T14:07:58.334Z,4.00
2023-03-27T14:10:49.917Z,6.50
2023-03-27T14:13:41.400Z,4.87
2023-03-27T14:16:25.070Z,5.73
2023-03-27T14:19:15.842Z,6.10
2023-03-27T14:21:53.599Z,5.77
2023-03-27T14:24:30.520Z,3.97
2023-03-27T14:27:02.562Z,7.37
2023-03-27T14:29:32.566Z,5.40
2023-03-27T14:32:05.968Z,3.90
2023-03-27T14:34:47.175Z,4.87
2023-03-27T14:37:30.113Z,8.23
2023-03-27T14:40:00.797Z,4.07
2023-03-27T14:42:33.110Z,5.10
2023-03-27T14:45:20.637Z,4.60
2023-03-27T14:47:51.743Z,7.57
2023-03-27T14:50:20.176Z,4.87
2023-03-27T14:52:53.414Z,4.80
2023-03-27T14:55:23.930Z,5.63
2023-03-27T14:57:57.678Z,6.67
2023-03-27T15:00:28.996Z,5.97
2023-03-27T15:03:03.900Z,7.53
2023-03-27T15:05:32.399Z,5.87
2023-03-27T15:08:01.939Z,5.50
2023-03-27T15:10:32.714Z,7.90
2023-03-27T15:13:02.537Z,9.93
2023-03-27T15:15:39.867Z,9.37
2023-03-27T15:18:15.215Z,8.20
2023-03-27T15:20:44.660Z,7.27
2023-03-27T15:23:20.353Z,5.60
2023-03-27T15:25:56.030Z,6.37
2023-03-27T15:28:32.749Z,5.47
2023-03-27T15:31:04.101Z,7.73
2023-03-27T15:33:41.342Z,5.37
2023-03-27T15:36:26.463Z,6.30
2023-03-27T15:38:55.730Z,7.70
2023-03-27T15:41:44.072Z,7.37
2023-03-27T15:44:18.452Z,7.20
2023-03-27T15:46:51.333Z,6.20
2023-03-27T15:49:38.756Z,8.33
2023-03-27T15:52:32.129Z,8.63
2023-03-27T15:55:01.146Z,7.73
2023-03-27T15:57:30.700Z,8.40
2023-03-27T16:00:08.704Z,9.17
2023-03-27T16:02:37.875Z,7.07
2023-03-27T16:05:07.723Z,7.07
2023-03-27T16:07:46.443Z,9.23
2023-03-27T16:10:28.605Z,9.43
2023-03-27T16:12:58.380Z,10.57
2023-03-27T16:15:33.038Z,10.33
2023-03-27T16:18:05.111Z,9.70
2023-03-27T16:20:40.105Z,10.73
2023-03-27T16:23:08.797Z,12.17
2023-03-27T16:25:37.403Z,9.50
2023-03-27T16:28:11.037Z,8.93
2023-03-27T16:30:42.377Z,13.97
2023-03-27T16:33:16.284Z,8.93
2023-03-27T16:35:45.457Z,11.40
2023-03-27T16:38:14.489Z,9.93
2023-03-27T16:40:43.526Z,13.77
2023-03-27T16:43:12.004Z,12.57
2023-03-27T16:45:41.946Z,13.00
2023-03-27T16:48:13.549Z,15.55
2023-03-27T16:50:41.950Z,14.30
2023-03-27T16:53:10.232Z,13.70
2023-03-27T16:55:38.592Z,13.87
2023-03-27T16:58:06.938Z,11.93
2023-03-27T17:00:35.223Z,12.10
2023-03-27T17:03:05.199Z,7.43
2023-03-27T17:05:34.508Z,7.33
2023-03-27T17:08:05.297Z,12.40
2023-03-27T17:10:35.094Z,10.80
2023-03-27T17:13:03.436Z,14.73
2023-03-27T17:15:31.749Z,13.30
2023-03-27T17:18:00.067Z,13.20
2023-03-27T17:20:29.992Z,13.30
2023-03-27T17:22:58.383Z,13.87
2023-03-27T17:25:27.687Z,14.40
2023-03-27T17:27:56.050Z,13.83
2023-03-27T17:30:36.696Z,13.67
2023-03-27T17:33:06.837Z,13.57
2023-03-27T17:35:38.826Z,17.83
2023-03-27T17:38:07.707Z,14.13
2023-03-27T17:40:42.761Z,20.00
2023-03-27T17:43:12.508Z,16.23
2023-03-27T17:45:42.792Z,15.23
2023-03-27T17:48:12.142Z,15.03
2023-03-27T17:50:42.034Z,12.87
2023-03-27T17:53:10.376Z,18.20
2023-03-27T17:55:39.043Z,71.20
2023-03-27T17:58:09.700Z,20.63
2023-03-27T18:00:39.822Z,14.93
2023-03-27T18:03:09.036Z,14.00
2023-03-27T18:05:38.705Z,15.43
2023-03-27T18:08:10.666Z,15.60
2023-03-27T18:10:42.098Z,15.53
2023-03-27T18:13:10.440Z,18.13
2023-03-27T18:15:40.305Z,15.40
2023-03-27T18:18:08.802Z,16.03
2023-03-27T18:20:38.569Z,22.17
2023-03-27T18:23:08.335Z,33.60
2023-03-27T18:25:41.976Z,17.50
2023-03-27T18:28:11.187Z,27.93
2023-03-27T18:30:39.840Z,21.63
2023-03-27T18:33:08.755Z,15.40
2023-03-27T18:35:37.542Z,16.27
2023-03-27T18:38:07.510Z,25.23
2023-03-27T18:40:35.844Z,23.93
2023-03-27T18:43:16.237Z,12.47
2023-03-27T18:45:44.718Z,13.23
2023-03-27T18:48:13.378Z,16.23
2023-03-27T18:50:42.395Z,14.87
2023-03-27T18:53:13.665Z,15.70
2023-03-27T18:55:41.947Z,16.00
2023-03-27T18:58:10.683Z,15.77
2023-03-27T19:00:39.171Z,14.33
2023-03-27T19:03:09.709Z,16.57
2023-03-27T19:05:38.204Z,15.70
2023-03-27T19:08:06.713Z,17.80
2023-03-27T19:10:37.644Z,12.80
2023-03-27T19:13:06.077Z,11.87
2023-03-27T19:15:34.719Z,14.73
2023-03-27T19:18:03.266Z,16.67
2023-03-27T19:20:31.614Z,13.00
2023-03-27T19:22:59.936Z,15.17
2023-03-27T19:25:28.750Z,13.60
2023-03-27T19:27:58.475Z,17.67
2023-03-27T19:30:26.793Z,12.03
2023-03-27T19:32:55.722Z,13.70
2023-03-27T19:35:24.080Z,13.63
2023-03-27T19:37:52.490Z,13.30
2023-03-27T19:40:20.857Z,11.27
2023-03-27T19:42:49.402Z,13.53
2023-03-27T19:45:19.294Z,14.10
2023-03-27T19:47:47.774Z,12.30
2023-03-27T19:50:16.128Z,13.87
2023-03-27T19:52:49.470Z,11.60
2023-03-27T19:55:25.839Z,14.73
2023-03-27T19:57:55.054Z,13.70
2023-03-27T20:00:25.027Z,11.90
2023-03-27T20:02:53.867Z,10.73
2023-03-27T20:05:22.493Z,12.57
2023-03-27T20:07:51.673Z,11.97
2023-03-27T20:10:21.429Z,16.33
2023-03-27T20:12:50.088Z,10.93
2023-03-27T20:15:18.484Z,10.83
2023-03-27T20:17:48.240Z,11.07
2023-03-27T20:20:16.624Z,10.93
2023-03-27T20:22:57.123Z,10.50
2023-03-27T20:25:28.095Z,11.60
2023-03-27T20:27:56.402Z,11.50
2023-03-27T20:30:24.672Z,10.23
2023-03-27T20:32:54.832Z,13.23
2023-03-27T20:35:24.975Z,10.47
2023-03-27T20:37:57.810Z,18.27
2023-03-27T20:40:34.768Z,12.20
2023-03-27T20:43:08.090Z,10.13
2023-03-27T20:45:42.990Z,12.53
2023-03-27T20:48:14.989Z,9.73
2023-03-27T20:50:49.183Z,9.87
2023-03-27T20:53:19.425Z,10.97
2023-03-27T20:56:03.317Z,8.47
2023-03-27T20:58:34.208Z,10.20
2023-03-27T21:01:05.417Z,12.57
2023-03-27T21:03:36.918Z,9.90
2023-03-27T21:06:06.775Z,11.70
2023-03-27T21:08:35.692Z,9.93
2023-03-27T21:11:04.714Z,9.73
2023-03-27T21:13:33.044Z,9.47
2023-03-27T21:16:02.568Z,12.37
2023-03-27T21:18:31.312Z,10.77
2023-03-27T21:21:01.137Z,10.17
2023-03-27T21:23:29.773Z,12.03
2023-03-27T21:25:59.203Z,10.63
2023-03-27T21:28:27.647Z,8.10
2023-03-27T21:30:55.947Z,9.60
2023-03-27T21:33:24.299Z,8.40
2023-03-27T21:35:52.758Z,8.27
2023-03-27T21:38:22.618Z,7.17
2023-03-27T21:40:50.954Z,7.70
2023-03-27T21:43:21.278Z,10.33
2023-03-27T21:45:50.451Z,7.20
2023-03-27T21:48:19.409Z,7.17
2023-03-27T21:50:47.772Z,7.13
2023-03-27T21:53:17.009Z,6.03
2023-03-27T21:55:47.388Z,8.67
2023-03-27T21:58:15.721Z,6.97
2023-03-27T22:00:46.097Z,4.80
2023-03-27T22:03:14.644Z,6.17
2023-03-27T22:05:45.927Z,5.10
2023-03-27T22:08:18.151Z,4.87
2023-03-27T22:10:47.896Z,5.43
2023-03-27T22:13:16.225Z,4.87
2023-03-27T22:15:44.608Z,5.73
2023-03-27T22:18:12.997Z,5.23
2023-03-27T22:20:41.320Z,5.37
2023-03-27T22:23:09.667Z,5.53
2023-03-27T22:25:37.956Z,5.40
2023-03-27T22:28:07.722Z,4.67
2023-03-27T22:30:36.455Z,4.10
2023-03-27T22:33:04.740Z,5.27
2023-03-27T22:35:33.131Z,5.47
2023-03-27T22:38:02.567Z,4.97
2023-03-27T22:40:30.845Z,4.20
2023-03-27T22:42:59.187Z,3.63
2023-03-27T22:45:28.877Z,3.83
2023-03-27T22:47:57.155Z,5.03
2023-03-27T22:50:25.446Z,3.97
2023-03-27T22:52:53.935Z,5.60
2023-03-27T22:55:22.175Z,4.23
2023-03-27T22:57:50.460Z,4.40
2023-03-27T23:00:19.676Z,3.73
2023-03-27T23:02:49.369Z,5.97
2023-03-27T23:05:17.988Z,2.73
2023-03-27T23:07:46.333Z,3.07
2023-03-27T23:10:14.667Z,3.33
2023-03-27T23:12:43.059Z,2.53
2023-03-27T23:15:12.086Z,3.10
2023-03-27T23:17:40.474Z,3.77
2023-03-27T23:20:11.082Z,5.27
2023-03-27T23:22:39.385Z,2.60
2023-03-27T23:25:08.367Z,2.77
2023-03-27T23:27:36.652Z,3.37
2023-03-27T23:30:06.083Z,3.93
2023-03-27T23:32:37.647Z,4.13
2023-03-27T23:35:07.367Z,3.53
2023-03-27T23:37:37.082Z,4.13
2023-03-27T23:40:06.862Z,3.97
2023-03-27T23:42:35.167Z,4.00
2023-03-27T23:45:03.547Z,3.70
2023-03-27T23:47:31.868Z,3.87
2023-03-27T23:50:00.395Z,4.20
2023-03-27T23:52:28.736Z,5.47
2023-03-27T23:54:58.447Z,3.17
2023-03-27T23:57:26.750Z,7.73
2023-03-27T23:59:55.058Z,5.60
